CheckWX is a tool to help pilots better visualize weather data.  It is not intended as a substitute for an official pre-flight weather briefing.

01:02:56 UTC

KEED TAF
Needles Airport
Needles, California, USA
KEED 192320Z 2000/2024 19011G18KT P6SM SKC FM200300 24007KT P6SM SKC FM201400 VRB04KT P6SM SKC FM202000 19008G16KT P6SM SKC

Aug-20@
00:00 UTC

Aug-20 @ 00:00 UTC

Aug-20@
03:00 UTC

Aug-20 @ 03:00 UTC

KEED 192320Z 2000/2024 19011G18KT P6SM SKC
Wind
  • 190° at 11 KTS
  • {Gusting to 18 KTS
Cloud Levels
  • Clear skies

Aug-20@
03:00 UTC

Aug-20 @ 03:00 UTC

Aug-20@
14:00 UTC

Aug-20 @ 14:00 UTC

FM200300 24007KT P6SM SKC

From

From Standard forecast or significant change

Wind
  • 240° at 7 KTS
Cloud Levels
  • Clear skies

Aug-20@
14:00 UTC

Aug-20 @ 14:00 UTC

Aug-20@
20:00 UTC

Aug-20 @ 20:00 UTC

FM201400 VRB04KT P6SM SKC

From

From Standard forecast or significant change

Wind
  • Variable at 4 KTS
Cloud Levels
  • Clear skies

Aug-20@
20:00 UTC

Aug-20 @ 20:00 UTC

Aug-21@
00:00 UTC

Aug-21 @ 00:00 UTC

FM202000 19008G16KT P6SM SKC

From

From Standard forecast or significant change

Wind
  • 190° at 8 KTS
  • {Gusting to 16 KTS
Cloud Levels
  • Clear skies